This is the latest recevied weather packets stored in our database for station/object WS2Z. If no packets are shown the sender has not sent any weather packets the latest 1 day(s).
| Time | Temp. | Humidity | Pressure | Rain* | Wind** | Luminosity | Snow |
|---|---|---|---|---|---|---|---|
| 1778073845 | 26.11° C | 82% | 1017 hPa | 0 mm | - | 232 W/m² | - |
| 1778073239 | 24.44° C | 87% | 1016.9 hPa | 0 mm | - | 79 W/m² | - |
| 1778071727 | 23.89° C | 89% | 1016.8 hPa | 0 mm | - | 65 W/m² | - |
| 1778068096 | 20.56° C | 96% | 1016.3 hPa | 0 mm | - | 53 W/m² | - |
| 1778065069 | 20° C | 96% | 1016 hPa | 0 mm | - | 5 W/m² | - |
| 1778064766 | 20° C | 96% | 1016 hPa | 0 mm | - | 3 W/m² | - |
| 1778063858 | 20° C | 96% | 1015.9 hPa | 0 mm | - | 0 W/m² | - |
| 1778063253 | 20° C | 96% | 1015.9 hPa | 0 mm | - | 0 W/m² | - |
| 1778062951 | 20° C | 96% | 1015.8 hPa | 0 mm | - | 0 W/m² | - |
| 1778062042 | 20.56° C | 96% | 1015.6 hPa | 0 mm | - | 0 W/m² | - |
| 1778061740 | 20.56° C | 96% | 1015.6 hPa | 0 mm | - | 0 W/m² | - |
| 1778061135 | 20.56° C | 95% | 1015.5 hPa | 0 mm | - | 0 W/m² | - |
| 1778060832 | 20.56° C | 95% | 1015.5 hPa | 0 mm | - | 0 W/m² | - |
| 1778060530 | 20.56° C | 95% | 1015.5 hPa | 0 mm | - | 0 W/m² | - |
| 1778059925 | 20.56° C | 95% | 1015.6 hPa | 0 mm | - | 0 W/m² | - |
| 1778059320 | 20.56° C | 95% | 1015.6 hPa | 0 mm | - | 0 W/m² | - |
| 1778059018 | 20.56° C | 95% | 1015.6 hPa | 0 mm | - | 0 W/m² | - |
| 1778058715 | 20.56° C | 95% | 1015.8 hPa | 0 mm | - | 0 W/m² | - |
| 1778058413 | 20.56° C | 95% | 1015.7 hPa | 0 mm | - | 0 W/m² | - |
| 1778058109 | 20.56° C | 95% | 1015.4 hPa | 0 mm | - | 0 W/m² | - |
| 1778057806 | 20.56° C | 95% | 1015.4 hPa | 0 mm | - | 0 W/m² | - |
| 1778057502 | 20.56° C | 95% | 1015.3 hPa | 0 mm | - | 0 W/m² | - |
| 1778057199 | 20.56° C | 95% | 1015.6 hPa | 0 mm | - | 0 W/m² | - |
| 1778056896 | 20.56° C | 95% | 1015.6 hPa | 0 mm | - | 0 W/m² | - |
| 1778055987 | 20.56° C | 95% | 1015.5 hPa | 0 mm | - | 0 W/m² | - |
* Rain latest hour (hover to see other rain measurements)
** Current wind speed in m/s (hover to see current wind gust speed)